sensor_id;sensor_type;location;lat;lon;timestamp;P1;durP1;ratioP1;P2;durP2;ratioP2
27794;SDS011;15176;50.844;4.412;2023-08-07T00:00:41;10.63;;;2.72;;
27794;SDS011;15176;50.844;4.412;2023-08-07T00:03:06;13.45;;;2.75;;
27794;SDS011;15176;50.844;4.412;2023-08-07T00:05:32;7.85;;;2.22;;
27794;SDS011;15176;50.844;4.412;2023-08-07T00:08:00;7.95;;;2.25;;
27794;SDS011;15176;50.844;4.412;2023-08-07T00:10:26;11.15;;;3.00;;
27794;SDS011;15176;50.844;4.412;2023-08-07T00:12:52;8.75;;;2.22;;
27794;SDS011;15176;50.844;4.412;2023-08-07T00:15:18;11.55;;;2.55;;
27794;SDS011;15176;50.844;4.412;2023-08-07T00:17:44;10.68;;;2.72;;
27794;SDS011;15176;50.844;4.412;2023-08-07T00:20:09;12.68;;;2.60;;
27794;SDS011;15176;50.844;4.412;2023-08-07T00:22:35;7.30;;;2.40;;
27794;SDS011;15176;50.844;4.412;2023-08-07T00:25:01;7.13;;;2.78;;
27794;SDS011;15176;50.844;4.412;2023-08-07T00:27:27;15.63;;;3.28;;
27794;SDS011;15176;50.844;4.412;2023-08-07T00:29:52;10.48;;;2.70;;
27794;SDS011;15176;50.844;4.412;2023-08-07T00:32:18;13.20;;;2.97;;
27794;SDS011;15176;50.844;4.412;2023-08-07T00:34:43;10.35;;;2.33;;
27794;SDS011;15176;50.844;4.412;2023-08-07T00:37:09;5.85;;;2.10;;
27794;SDS011;15176;50.844;4.412;2023-08-07T00:39:36;11.63;;;2.60;;
27794;SDS011;15176;50.844;4.412;2023-08-07T00:42:02;10.93;;;2.67;;
27794;SDS011;15176;50.844;4.412;2023-08-07T00:44:28;14.40;;;2.67;;
27794;SDS011;15176;50.844;4.412;2023-08-07T00:46:53;8.80;;;2.30;;
27794;SDS011;15176;50.844;4.412;2023-08-07T00:49:19;10.18;;;2.40;;
27794;SDS011;15176;50.844;4.412;2023-08-07T00:51:46;9.75;;;2.50;;
27794;SDS011;15176;50.844;4.412;2023-08-07T00:54:14;11.25;;;2.60;;
27794;SDS011;15176;50.844;4.412;2023-08-07T00:56:43;7.20;;;2.38;;
27794;SDS011;15176;50.844;4.412;2023-08-07T00:59:09;7.45;;;2.15;;
27794;SDS011;15176;50.844;4.412;2023-08-07T01:01:35;11.65;;;2.75;;
27794;SDS011;15176;50.844;4.412;2023-08-07T01:04:01;9.43;;;2.30;;
27794;SDS011;15176;50.844;4.412;2023-08-07T01:06:27;8.18;;;1.80;;
27794;SDS011;15176;50.844;4.412;2023-08-07T01:08:53;8.77;;;2.40;;
27794;SDS011;15176;50.844;4.412;2023-08-07T01:17:11;7.90;;;2.30;;
27794;SDS011;15176;50.844;4.412;2023-08-07T01:19:40;9.57;;;2.55;;
27794;SDS011;15176;50.844;4.412;2023-08-07T01:22:10;7.30;;;1.90;;
27794;SDS011;15176;50.844;4.412;2023-08-07T01:24:40;7.55;;;1.90;;
27794;SDS011;15176;50.844;4.412;2023-08-07T01:32:11;5.43;;;1.70;;
27794;SDS011;15176;50.844;4.412;2023-08-07T01:34:42;6.38;;;1.90;;
27794;SDS011;15176;50.844;4.412;2023-08-07T01:37:10;8.85;;;2.00;;
27794;SDS011;15176;50.844;4.412;2023-08-07T01:39:38;7.10;;;1.90;;
27794;SDS011;15176;50.844;4.412;2023-08-07T01:42:05;10.20;;;2.55;;
27794;SDS011;15176;50.844;4.412;2023-08-07T01:44:32;9.93;;;2.53;;
27794;SDS011;15176;50.844;4.412;2023-08-07T01:46:57;11.77;;;2.08;;
27794;SDS011;15176;50.844;4.412;2023-08-07T01:49:23;9.63;;;2.30;;
27794;SDS011;15176;50.844;4.412;2023-08-07T01:51:49;8.68;;;2.13;;
27794;SDS011;15176;50.844;4.412;2023-08-07T01:54:14;5.88;;;1.90;;
27794;SDS011;15176;50.844;4.412;2023-08-07T01:56:41;8.25;;;2.50;;
27794;SDS011;15176;50.844;4.412;2023-08-07T01:59:07;12.55;;;2.22;;
27794;SDS011;15176;50.844;4.412;2023-08-07T02:01:32;12.15;;;2.70;;
27794;SDS011;15176;50.844;4.412;2023-08-07T02:03:58;8.52;;;2.17;;
27794;SDS011;15176;50.844;4.412;2023-08-07T02:06:23;7.60;;;2.08;;
27794;SDS011;15176;50.844;4.412;2023-08-07T02:08:49;8.77;;;1.90;;
27794;SDS011;15176;50.844;4.412;2023-08-07T02:11:15;9.50;;;2.20;;
27794;SDS011;15176;50.844;4.412;2023-08-07T02:13:40;9.23;;;2.17;;
27794;SDS011;15176;50.844;4.412;2023-08-07T02:16:06;5.97;;;1.80;;
27794;SDS011;15176;50.844;4.412;2023-08-07T02:18:32;7.35;;;2.10;;
27794;SDS011;15176;50.844;4.412;2023-08-07T02:20:58;8.15;;;1.95;;
27794;SDS011;15176;50.844;4.412;2023-08-07T02:23:24;8.05;;;2.20;;
27794;SDS011;15176;50.844;4.412;2023-08-07T02:25:51;9.20;;;1.95;;
27794;SDS011;15176;50.844;4.412;2023-08-07T02:28:18;7.95;;;2.30;;
27794;SDS011;15176;50.844;4.412;2023-08-07T02:30:45;8.68;;;2.08;;
27794;SDS011;15176;50.844;4.412;2023-08-07T02:33:13;10.38;;;1.80;;
27794;SDS011;15176;50.844;4.412;2023-08-07T02:35:39;4.70;;;2.00;;
27794;SDS011;15176;50.844;4.412;2023-08-07T02:38:05;8.38;;;2.08;;
27794;SDS011;15176;50.844;4.412;2023-08-07T02:40:31;5.63;;;1.90;;
27794;SDS011;15176;50.844;4.412;2023-08-07T02:42:57;7.70;;;1.55;;
27794;SDS011;15176;50.844;4.412;2023-08-07T02:45:23;8.23;;;2.20;;
27794;SDS011;15176;50.844;4.412;2023-08-07T02:47:49;7.60;;;1.98;;
27794;SDS011;15176;50.844;4.412;2023-08-07T02:50:14;6.88;;;2.00;;
27794;SDS011;15176;50.844;4.412;2023-08-07T02:52:40;6.95;;;2.10;;
27794;SDS011;15176;50.844;4.412;2023-08-07T02:55:06;6.82;;;2.17;;
27794;SDS011;15176;50.844;4.412;2023-08-07T02:57:32;8.95;;;2.33;;
27794;SDS011;15176;50.844;4.412;2023-08-07T02:59:57;13.43;;;2.83;;
27794;SDS011;15176;50.844;4.412;2023-08-07T03:02:23;5.10;;;1.80;;
27794;SDS011;15176;50.844;4.412;2023-08-07T03:04:49;6.40;;;1.73;;
27794;SDS011;15176;50.844;4.412;2023-08-07T03:07:14;7.47;;;1.80;;
27794;SDS011;15176;50.844;4.412;2023-08-07T03:09:40;7.72;;;1.98;;
27794;SDS011;15176;50.844;4.412;2023-08-07T03:12:06;8.40;;;2.13;;
27794;SDS011;15176;50.844;4.412;2023-08-07T03:14:32;8.55;;;1.88;;
27794;SDS011;15176;50.844;4.412;2023-08-07T03:16:57;8.57;;;1.85;;
27794;SDS011;15176;50.844;4.412;2023-08-07T03:19:23;9.10;;;2.10;;
27794;SDS011;15176;50.844;4.412;2023-08-07T03:21:49;11.30;;;2.13;;
27794;SDS011;15176;50.844;4.412;2023-08-07T03:24:14;8.45;;;2.13;;
27794;SDS011;15176;50.844;4.412;2023-08-07T03:26:40;10.50;;;2.50;;
27794;SDS011;15176;50.844;4.412;2023-08-07T03:29:06;11.55;;;2.47;;
27794;SDS011;15176;50.844;4.412;2023-08-07T03:31:32;7.68;;;2.00;;
27794;SDS011;15176;50.844;4.412;2023-08-07T03:33:57;9.20;;;1.95;;
27794;SDS011;15176;50.844;4.412;2023-08-07T03:36:23;9.35;;;2.15;;
27794;SDS011;15176;50.844;4.412;2023-08-07T03:38:49;8.98;;;2.17;;
27794;SDS011;15176;50.844;4.412;2023-08-07T03:41:15;8.20;;;1.98;;
27794;SDS011;15176;50.844;4.412;2023-08-07T03:43:40;9.65;;;2.28;;
27794;SDS011;15176;50.844;4.412;2023-08-07T03:46:06;7.95;;;2.33;;
27794;SDS011;15176;50.844;4.412;2023-08-07T03:48:32;10.38;;;2.10;;
27794;SDS011;15176;50.844;4.412;2023-08-07T03:51:07;8.63;;;2.20;;
27794;SDS011;15176;50.844;4.412;2023-08-07T03:53:36;10.18;;;2.20;;
27794;SDS011;15176;50.844;4.412;2023-08-07T03:56:02;12.15;;;3.35;;
27794;SDS011;15176;50.844;4.412;2023-08-07T03:58:28;15.02;;;2.60;;
27794;SDS011;15176;50.844;4.412;2023-08-07T04:00:54;10.27;;;2.40;;
27794;SDS011;15176;50.844;4.412;2023-08-07T04:03:21;10.05;;;2.60;;
27794;SDS011;15176;50.844;4.412;2023-08-07T04:05:47;6.40;;;2.03;;
27794;SDS011;15176;50.844;4.412;2023-08-07T04:08:16;11.70;;;2.58;;
27794;SDS011;15176;50.844;4.412;2023-08-07T04:10:42;10.70;;;2.40;;
27794;SDS011;15176;50.844;4.412;2023-08-07T04:13:07;10.65;;;2.40;;
27794;SDS011;15176;50.844;4.412;2023-08-07T04:15:34;8.93;;;2.70;;
27794;SDS011;15176;50.844;4.412;2023-08-07T04:18:00;8.32;;;2.28;;
27794;SDS011;15176;50.844;4.412;2023-08-07T04:20:26;10.02;;;2.40;;
27794;SDS011;15176;50.844;4.412;2023-08-07T04:22:51;7.55;;;1.90;;
27794;SDS011;15176;50.844;4.412;2023-08-07T04:25:17;7.68;;;2.28;;
27794;SDS011;15176;50.844;4.412;2023-08-07T04:27:43;6.82;;;2.30;;
27794;SDS011;15176;50.844;4.412;2023-08-07T04:30:08;6.20;;;2.30;;
27794;SDS011;15176;50.844;4.412;2023-08-07T04:32:34;11.38;;;2.35;;
27794;SDS011;15176;50.844;4.412;2023-08-07T04:35:00;11.98;;;2.35;;
27794;SDS011;15176;50.844;4.412;2023-08-07T04:37:26;9.20;;;2.65;;
27794;SDS011;15176;50.844;4.412;2023-08-07T04:39:51;8.20;;;2.08;;
27794;SDS011;15176;50.844;4.412;2023-08-07T04:42:19;9.30;;;2.47;;
27794;SDS011;15176;50.844;4.412;2023-08-07T04:44:45;9.60;;;2.38;;
27794;SDS011;15176;50.844;4.412;2023-08-07T04:47:10;10.85;;;2.72;;
27794;SDS011;15176;50.844;4.412;2023-08-07T04:49:36;9.35;;;2.38;;
27794;SDS011;15176;50.844;4.412;2023-08-07T04:52:01;9.60;;;2.42;;
27794;SDS011;15176;50.844;4.412;2023-08-07T04:54:27;6.10;;;2.60;;
27794;SDS011;15176;50.844;4.412;2023-08-07T04:56:53;8.07;;;2.35;;
27794;SDS011;15176;50.844;4.412;2023-08-07T04:59:19;6.85;;;2.40;;
27794;SDS011;15176;50.844;4.412;2023-08-07T05:01:46;12.38;;;2.45;;
27794;SDS011;15176;50.844;4.412;2023-08-07T05:04:11;11.52;;;2.47;;
27794;SDS011;15176;50.844;4.412;2023-08-07T05:06:37;10.82;;;2.42;;
27794;SDS011;15176;50.844;4.412;2023-08-07T05:09:03;7.97;;;2.30;;
27794;SDS011;15176;50.844;4.412;2023-08-07T05:11:28;8.23;;;2.40;;
27794;SDS011;15176;50.844;4.412;2023-08-07T05:13:54;6.15;;;2.10;;
27794;SDS011;15176;50.844;4.412;2023-08-07T05:16:20;8.00;;;2.88;;
27794;SDS011;15176;50.844;4.412;2023-08-07T05:18:46;11.88;;;2.38;;
27794;SDS011;15176;50.844;4.412;2023-08-07T05:21:11;6.35;;;2.20;;
27794;SDS011;15176;50.844;4.412;2023-08-07T05:23:37;9.43;;;2.15;;
27794;SDS011;15176;50.844;4.412;2023-08-07T05:26:04;8.40;;;2.17;;
27794;SDS011;15176;50.844;4.412;2023-08-07T05:28:30;9.85;;;2.40;;
27794;SDS011;15176;50.844;4.412;2023-08-07T05:30:56;7.88;;;2.20;;
27794;SDS011;15176;50.844;4.412;2023-08-07T05:33:22;8.15;;;2.83;;
27794;SDS011;15176;50.844;4.412;2023-08-07T05:35:48;7.60;;;2.50;;
27794;SDS011;15176;50.844;4.412;2023-08-07T05:38:15;10.02;;;2.10;;
27794;SDS011;15176;50.844;4.412;2023-08-07T05:40:40;9.40;;;2.10;;
27794;SDS011;15176;50.844;4.412;2023-08-07T05:43:06;10.18;;;2.53;;
27794;SDS011;15176;50.844;4.412;2023-08-07T05:45:32;9.00;;;2.42;;
27794;SDS011;15176;50.844;4.412;2023-08-07T05:47:57;9.35;;;2.65;;
27794;SDS011;15176;50.844;4.412;2023-08-07T05:50:23;10.75;;;2.40;;
27794;SDS011;15176;50.844;4.412;2023-08-07T05:52:48;7.55;;;2.30;;
27794;SDS011;15176;50.844;4.412;2023-08-07T05:55:14;10.55;;;2.45;;
27794;SDS011;15176;50.844;4.412;2023-08-07T05:57:40;9.13;;;2.35;;
27794;SDS011;15176;50.844;4.412;2023-08-07T06:00:06;7.40;;;2.45;;
27794;SDS011;15176;50.844;4.412;2023-08-07T06:02:32;9.60;;;2.20;;
27794;SDS011;15176;50.844;4.412;2023-08-07T06:04:58;11.10;;;2.70;;
27794;SDS011;15176;50.844;4.412;2023-08-07T06:07:24;7.57;;;2.50;;
27794;SDS011;15176;50.844;4.412;2023-08-07T06:09:49;7.80;;;2.53;;
27794;SDS011;15176;50.844;4.412;2023-08-07T06:12:15;10.65;;;2.65;;
27794;SDS011;15176;50.844;4.412;2023-08-07T06:14:41;9.55;;;2.45;;
27794;SDS011;15176;50.844;4.412;2023-08-07T06:17:06;11.82;;;2.72;;
27794;SDS011;15176;50.844;4.412;2023-08-07T06:19:32;10.57;;;2.50;;
27794;SDS011;15176;50.844;4.412;2023-08-07T06:21:58;10.90;;;2.38;;
27794;SDS011;15176;50.844;4.412;2023-08-07T06:24:25;9.43;;;2.42;;
27794;SDS011;15176;50.844;4.412;2023-08-07T06:26:50;11.40;;;3.00;;
27794;SDS011;15176;50.844;4.412;2023-08-07T06:29:16;12.38;;;2.80;;
27794;SDS011;15176;50.844;4.412;2023-08-07T06:31:42;8.90;;;2.80;;
27794;SDS011;15176;50.844;4.412;2023-08-07T06:34:08;9.10;;;2.92;;
27794;SDS011;15176;50.844;4.412;2023-08-07T06:36:34;8.20;;;2.53;;
27794;SDS011;15176;50.844;4.412;2023-08-07T06:38:59;7.97;;;2.80;;
27794;SDS011;15176;50.844;4.412;2023-08-07T06:41:25;9.40;;;2.80;;
27794;SDS011;15176;50.844;4.412;2023-08-07T06:43:51;12.00;;;2.90;;
27794;SDS011;15176;50.844;4.412;2023-08-07T06:46:16;16.63;;;2.75;;
27794;SDS011;15176;50.844;4.412;2023-08-07T06:48:43;10.20;;;3.15;;
27794;SDS011;15176;50.844;4.412;2023-08-07T06:51:08;11.40;;;2.85;;
27794;SDS011;15176;50.844;4.412;2023-08-07T06:53:34;10.25;;;2.67;;
27794;SDS011;15176;50.844;4.412;2023-08-07T06:56:00;10.60;;;2.72;;
27794;SDS011;15176;50.844;4.412;2023-08-07T06:58:25;12.05;;;2.67;;
27794;SDS011;15176;50.844;4.412;2023-08-07T07:00:51;11.43;;;2.58;;
27794;SDS011;15176;50.844;4.412;2023-08-07T07:03:17;11.60;;;2.45;;
27794;SDS011;15176;50.844;4.412;2023-08-07T07:05:42;9.65;;;2.42;;
27794;SDS011;15176;50.844;4.412;2023-08-07T07:08:08;11.40;;;2.58;;
27794;SDS011;15176;50.844;4.412;2023-08-07T07:10:34;6.88;;;2.40;;
27794;SDS011;15176;50.844;4.412;2023-08-07T07:12:59;9.10;;;2.40;;
27794;SDS011;15176;50.844;4.412;2023-08-07T07:15:25;8.70;;;2.53;;
27794;SDS011;15176;50.844;4.412;2023-08-07T07:17:51;7.22;;;2.72;;
27794;SDS011;15176;50.844;4.412;2023-08-07T07:20:16;12.27;;;2.50;;
27794;SDS011;15176;50.844;4.412;2023-08-07T07:22:42;10.10;;;3.05;;
27794;SDS011;15176;50.844;4.412;2023-08-07T07:25:08;9.68;;;2.30;;
27794;SDS011;15176;50.844;4.412;2023-08-07T07:27:34;7.47;;;2.47;;
27794;SDS011;15176;50.844;4.412;2023-08-07T07:30:00;11.35;;;2.42;;
27794;SDS011;15176;50.844;4.412;2023-08-07T07:32:25;8.38;;;2.20;;
27794;SDS011;15176;50.844;4.412;2023-08-07T07:34:52;7.82;;;2.22;;
27794;SDS011;15176;50.844;4.412;2023-08-07T07:37:18;9.10;;;2.28;;
27794;SDS011;15176;50.844;4.412;2023-08-07T07:39:43;8.90;;;2.55;;
27794;SDS011;15176;50.844;4.412;2023-08-07T07:42:09;11.25;;;2.58;;
27794;SDS011;15176;50.844;4.412;2023-08-07T07:44:35;8.98;;;2.30;;
27794;SDS011;15176;50.844;4.412;2023-08-07T07:47:01;8.45;;;2.13;;
27794;SDS011;15176;50.844;4.412;2023-08-07T07:49:28;8.68;;;2.50;;
27794;SDS011;15176;50.844;4.412;2023-08-07T07:51:54;10.00;;;2.42;;
27794;SDS011;15176;50.844;4.412;2023-08-07T07:54:19;8.10;;;2.10;;
27794;SDS011;15176;50.844;4.412;2023-08-07T07:56:46;9.65;;;2.00;;
27794;SDS011;15176;50.844;4.412;2023-08-07T07:59:12;8.57;;;2.40;;
27794;SDS011;15176;50.844;4.412;2023-08-07T08:01:38;5.28;;;1.90;;
27794;SDS011;15176;50.844;4.412;2023-08-07T08:04:04;6.05;;;2.03;;
27794;SDS011;15176;50.844;4.412;2023-08-07T08:06:30;4.70;;;1.90;;
27794;SDS011;15176;50.844;4.412;2023-08-07T08:08:56;8.90;;;2.20;;
27794;SDS011;15176;50.844;4.412;2023-08-07T08:11:22;5.82;;;1.90;;
27794;SDS011;15176;50.844;4.412;2023-08-07T08:13:47;5.30;;;1.77;;
27794;SDS011;15176;50.844;4.412;2023-08-07T08:16:13;5.63;;;1.98;;
27794;SDS011;15176;50.844;4.412;2023-08-07T08:18:39;7.20;;;1.95;;
27794;SDS011;15176;50.844;4.412;2023-08-07T08:21:05;7.38;;;1.83;;
27794;SDS011;15176;50.844;4.412;2023-08-07T08:23:31;7.63;;;2.05;;
27794;SDS011;15176;50.844;4.412;2023-08-07T08:25:57;5.57;;;1.73;;
27794;SDS011;15176;50.844;4.412;2023-08-07T08:28:23;6.05;;;1.90;;
27794;SDS011;15176;50.844;4.412;2023-08-07T08:30:48;6.28;;;2.08;;
27794;SDS011;15176;50.844;4.412;2023-08-07T08:33:14;7.18;;;2.13;;
27794;SDS011;15176;50.844;4.412;2023-08-07T08:35:40;6.10;;;2.00;;
27794;SDS011;15176;50.844;4.412;2023-08-07T08:38:08;9.68;;;2.60;;
27794;SDS011;15176;50.844;4.412;2023-08-07T08:40:34;7.75;;;2.10;;
27794;SDS011;15176;50.844;4.412;2023-08-07T08:43:02;4.68;;;1.65;;
27794;SDS011;15176;50.844;4.412;2023-08-07T08:45:30;5.60;;;1.80;;
27794;SDS011;15176;50.844;4.412;2023-08-07T08:48:03;6.18;;;1.70;;
27794;SDS011;15176;50.844;4.412;2023-08-07T08:50:30;6.00;;;2.65;;
27794;SDS011;15176;50.844;4.412;2023-08-07T08:52:58;7.10;;;1.70;;
27794;SDS011;15176;50.844;4.412;2023-08-07T08:55:24;6.18;;;2.00;;
27794;SDS011;15176;50.844;4.412;2023-08-07T08:57:51;6.40;;;1.88;;
27794;SDS011;15176;50.844;4.412;2023-08-07T09:00:21;6.57;;;2.20;;
27794;SDS011;15176;50.844;4.412;2023-08-07T09:02:51;5.63;;;1.80;;
27794;SDS011;15176;50.844;4.412;2023-08-07T09:05:20;6.50;;;1.70;;
27794;SDS011;15176;50.844;4.412;2023-08-07T09:07:49;7.72;;;2.03;;
27794;SDS011;15176;50.844;4.412;2023-08-07T09:10:15;8.18;;;1.98;;
27794;SDS011;15176;50.844;4.412;2023-08-07T09:12:48;5.53;;;1.90;;
27794;SDS011;15176;50.844;4.412;2023-08-07T09:15:19;6.13;;;1.75;;
27794;SDS011;15176;50.844;4.412;2023-08-07T09:17:46;10.73;;;2.72;;
27794;SDS011;15176;50.844;4.412;2023-08-07T09:20:13;8.40;;;2.03;;
27794;SDS011;15176;50.844;4.412;2023-08-07T09:22:40;5.95;;;1.92;;
27794;SDS011;15176;50.844;4.412;2023-08-07T09:25:06;8.48;;;2.22;;
27794;SDS011;15176;50.844;4.412;2023-08-07T09:27:32;5.88;;;1.83;;
27794;SDS011;15176;50.844;4.412;2023-08-07T09:29:58;5.03;;;1.80;;
27794;SDS011;15176;50.844;4.412;2023-08-07T09:32:24;15.27;;;1.80;;
27794;SDS011;15176;50.844;4.412;2023-08-07T09:34:50;5.00;;;1.70;;
27794;SDS011;15176;50.844;4.412;2023-08-07T09:37:19;5.63;;;1.83;;
27794;SDS011;15176;50.844;4.412;2023-08-07T09:39:45;5.80;;;1.85;;
27794;SDS011;15176;50.844;4.412;2023-08-07T09:42:15;7.40;;;2.00;;
27794;SDS011;15176;50.844;4.412;2023-08-07T09:44:42;6.07;;;2.00;;
27794;SDS011;15176;50.844;4.412;2023-08-07T09:47:15;4.15;;;1.42;;
27794;SDS011;15176;50.844;4.412;2023-08-07T09:49:42;6.82;;;1.90;;
27794;SDS011;15176;50.844;4.412;2023-08-07T09:52:09;6.95;;;1.90;;
27794;SDS011;15176;50.844;4.412;2023-08-07T09:54:38;4.88;;;1.77;;
27794;SDS011;15176;50.844;4.412;2023-08-07T09:57:04;5.38;;;1.60;;
27794;SDS011;15176;50.844;4.412;2023-08-07T09:59:32;4.35;;;1.63;;
27794;SDS011;15176;50.844;4.412;2023-08-07T10:02:02;5.85;;;1.83;;
27794;SDS011;15176;50.844;4.412;2023-08-07T10:04:28;3.13;;;1.38;;
27794;SDS011;15176;50.844;4.412;2023-08-07T10:06:55;6.07;;;1.30;;
27794;SDS011;15176;50.844;4.412;2023-08-07T10:09:21;4.50;;;1.65;;
27794;SDS011;15176;50.844;4.412;2023-08-07T10:11:48;3.70;;;1.45;;
27794;SDS011;15176;50.844;4.412;2023-08-07T10:14:15;3.83;;;1.48;;
27794;SDS011;15176;50.844;4.412;2023-08-07T10:16:41;5.30;;;2.33;;
27794;SDS011;15176;50.844;4.412;2023-08-07T10:19:08;5.38;;;1.90;;
27794;SDS011;15176;50.844;4.412;2023-08-07T10:21:37;5.65;;;1.70;;
27794;SDS011;15176;50.844;4.412;2023-08-07T10:24:04;4.45;;;1.70;;
27794;SDS011;15176;50.844;4.412;2023-08-07T10:26:33;3.10;;;1.50;;
27794;SDS011;15176;50.844;4.412;2023-08-07T10:29:13;6.43;;;1.75;;
27794;SDS011;15176;50.844;4.412;2023-08-07T10:31:42;7.22;;;1.50;;
27794;SDS011;15176;50.844;4.412;2023-08-07T10:34:09;4.47;;;1.42;;
27794;SDS011;15176;50.844;4.412;2023-08-07T10:36:36;3.38;;;1.40;;
27794;SDS011;15176;50.844;4.412;2023-08-07T10:39:10;4.45;;;1.58;;
27794;SDS011;15176;50.844;4.412;2023-08-07T10:41:38;4.53;;;1.48;;
27794;SDS011;15176;50.844;4.412;2023-08-07T10:44:16;5.18;;;1.70;;
27794;SDS011;15176;50.844;4.412;2023-08-07T10:46:53;16.92;;;9.20;;
27794;SDS011;15176;50.844;4.412;2023-08-07T10:49:39;5.47;;;2.72;;
27794;SDS011;15176;50.844;4.412;2023-08-07T10:52:09;4.13;;;1.25;;
27794;SDS011;15176;50.844;4.412;2023-08-07T10:54:38;4.55;;;1.60;;
27794;SDS011;15176;50.844;4.412;2023-08-07T10:57:23;3.67;;;1.52;;
27794;SDS011;15176;50.844;4.412;2023-08-07T11:02:26;2.92;;;1.40;;
27794;SDS011;15176;50.844;4.412;2023-08-07T11:04:54;2.50;;;1.20;;
27794;SDS011;15176;50.844;4.412;2023-08-07T11:07:27;4.50;;;1.40;;
27794;SDS011;15176;50.844;4.412;2023-08-07T11:09:54;4.60;;;1.52;;
27794;SDS011;15176;50.844;4.412;2023-08-07T11:12:23;3.92;;;1.50;;
27794;SDS011;15176;50.844;4.412;2023-08-07T11:14:50;4.35;;;1.65;;
27794;SDS011;15176;50.844;4.412;2023-08-07T11:17:18;4.05;;;1.80;;
27794;SDS011;15176;50.844;4.412;2023-08-07T11:19:46;4.45;;;1.58;;
27794;SDS011;15176;50.844;4.412;2023-08-07T11:22:14;5.38;;;1.58;;
27794;SDS011;15176;50.844;4.412;2023-08-07T11:24:41;5.63;;;1.77;;
27794;SDS011;15176;50.844;4.412;2023-08-07T11:27:07;4.53;;;1.65;;
27794;SDS011;15176;50.844;4.412;2023-08-07T11:29:34;3.92;;;1.35;;
27794;SDS011;15176;50.844;4.412;2023-08-07T11:32:00;3.40;;;1.42;;
27794;SDS011;15176;50.844;4.412;2023-08-07T11:34:25;4.82;;;1.50;;
27794;SDS011;15176;50.844;4.412;2023-08-07T11:36:51;3.85;;;1.40;;
27794;SDS011;15176;50.844;4.412;2023-08-07T11:39:20;3.95;;;1.60;;
27794;SDS011;15176;50.844;4.412;2023-08-07T11:41:46;7.28;;;1.60;;
27794;SDS011;15176;50.844;4.412;2023-08-07T11:44:12;5.47;;;1.52;;
27794;SDS011;15176;50.844;4.412;2023-08-07T11:46:38;4.93;;;1.60;;
27794;SDS011;15176;50.844;4.412;2023-08-07T11:49:03;5.25;;;1.38;;
27794;SDS011;15176;50.844;4.412;2023-08-07T11:51:29;4.63;;;1.52;;
27794;SDS011;15176;50.844;4.412;2023-08-07T11:53:58;4.40;;;1.40;;
27794;SDS011;15176;50.844;4.412;2023-08-07T11:56:24;3.20;;;1.30;;
27794;SDS011;15176;50.844;4.412;2023-08-07T11:58:51;7.15;;;1.50;;
27794;SDS011;15176;50.844;4.412;2023-08-07T12:06:30;3.05;;;1.15;;
27794;SDS011;15176;50.844;4.412;2023-08-07T12:08:57;3.75;;;1.50;;
27794;SDS011;15176;50.844;4.412;2023-08-07T12:11:22;4.43;;;1.63;;
27794;SDS011;15176;50.844;4.412;2023-08-07T12:13:49;4.28;;;1.30;;
27794;SDS011;15176;50.844;4.412;2023-08-07T12:16:15;6.82;;;1.60;;
27794;SDS011;15176;50.844;4.412;2023-08-07T12:18:45;3.45;;;1.25;;
27794;SDS011;15176;50.844;4.412;2023-08-07T12:21:16;5.03;;;1.50;;
27794;SDS011;15176;50.844;4.412;2023-08-07T12:23:44;7.15;;;1.67;;
27794;SDS011;15176;50.844;4.412;2023-08-07T12:26:12;4.03;;;1.35;;
27794;SDS011;15176;50.844;4.412;2023-08-07T12:28:38;5.43;;;1.38;;
27794;SDS011;15176;50.844;4.412;2023-08-07T12:31:04;4.00;;;1.15;;
27794;SDS011;15176;50.844;4.412;2023-08-07T12:33:31;5.85;;;1.70;;
27794;SDS011;15176;50.844;4.412;2023-08-07T12:35:58;7.20;;;1.20;;
27794;SDS011;15176;50.844;4.412;2023-08-07T12:38:24;5.30;;;1.52;;
27794;SDS011;15176;50.844;4.412;2023-08-07T12:40:50;4.88;;;1.20;;
27794;SDS011;15176;50.844;4.412;2023-08-07T12:43:16;3.83;;;1.05;;
27794;SDS011;15176;50.844;4.412;2023-08-07T12:45:42;5.13;;;1.45;;
27794;SDS011;15176;50.844;4.412;2023-08-07T12:48:08;4.15;;;1.40;;
27794;SDS011;15176;50.844;4.412;2023-08-07T12:50:34;3.67;;;1.38;;
27794;SDS011;15176;50.844;4.412;2023-08-07T12:53:00;2.28;;;1.13;;
27794;SDS011;15176;50.844;4.412;2023-08-07T12:55:26;6.35;;;1.38;;
27794;SDS011;15176;50.844;4.412;2023-08-07T12:57:53;4.28;;;1.40;;
27794;SDS011;15176;50.844;4.412;2023-08-07T13:00:19;5.15;;;1.42;;
27794;SDS011;15176;50.844;4.412;2023-08-07T13:02:46;4.65;;;1.48;;
27794;SDS011;15176;50.844;4.412;2023-08-07T13:05:13;3.58;;;1.20;;
27794;SDS011;15176;50.844;4.412;2023-08-07T13:07:42;5.88;;;2.92;;
27794;SDS011;15176;50.844;4.412;2023-08-07T13:10:09;3.35;;;1.40;;
27794;SDS011;15176;50.844;4.412;2023-08-07T13:12:37;3.60;;;1.30;;
27794;SDS011;15176;50.844;4.412;2023-08-07T13:15:04;2.42;;;0.80;;
27794;SDS011;15176;50.844;4.412;2023-08-07T13:17:32;2.95;;;1.05;;
27794;SDS011;15176;50.844;4.412;2023-08-07T13:19:58;2.53;;;1.10;;
27794;SDS011;15176;50.844;4.412;2023-08-07T13:22:25;2.58;;;1.10;;
27794;SDS011;15176;50.844;4.412;2023-08-07T13:24:51;8.38;;;1.10;;
27794;SDS011;15176;50.844;4.412;2023-08-07T13:27:17;3.97;;;1.13;;
27794;SDS011;15176;50.844;4.412;2023-08-07T13:29:43;1.65;;;0.80;;
27794;SDS011;15176;50.844;4.412;2023-08-07T13:32:09;1.80;;;0.85;;
27794;SDS011;15176;50.844;4.412;2023-08-07T13:34:35;2.28;;;0.80;;
27794;SDS011;15176;50.844;4.412;2023-08-07T13:37:02;4.85;;;1.00;;
27794;SDS011;15176;50.844;4.412;2023-08-07T13:39:28;3.40;;;0.90;;
27794;SDS011;15176;50.844;4.412;2023-08-07T13:41:54;3.42;;;0.98;;
27794;SDS011;15176;50.844;4.412;2023-08-07T13:44:19;1.88;;;0.90;;
27794;SDS011;15176;50.844;4.412;2023-08-07T13:46:45;2.85;;;0.80;;
27794;SDS011;15176;50.844;4.412;2023-08-07T13:49:12;2.42;;;0.95;;
27794;SDS011;15176;50.844;4.412;2023-08-07T13:51:38;2.05;;;0.75;;
27794;SDS011;15176;50.844;4.412;2023-08-07T13:54:05;4.38;;;1.42;;
27794;SDS011;15176;50.844;4.412;2023-08-07T13:56:31;2.33;;;0.60;;
27794;SDS011;15176;50.844;4.412;2023-08-07T13:58:56;2.95;;;0.95;;
27794;SDS011;15176;50.844;4.412;2023-08-07T14:01:22;3.13;;;0.90;;
27794;SDS011;15176;50.844;4.412;2023-08-07T14:03:48;2.38;;;0.95;;
27794;SDS011;15176;50.844;4.412;2023-08-07T14:06:15;3.03;;;0.90;;
27794;SDS011;15176;50.844;4.412;2023-08-07T14:08:40;2.42;;;1.00;;
27794;SDS011;15176;50.844;4.412;2023-08-07T14:11:06;2.47;;;0.80;;
27794;SDS011;15176;50.844;4.412;2023-08-07T14:13:35;3.20;;;0.90;;
27794;SDS011;15176;50.844;4.412;2023-08-07T14:16:01;2.28;;;0.77;;
27794;SDS011;15176;50.844;4.412;2023-08-07T14:18:26;3.17;;;1.17;;
27794;SDS011;15176;50.844;4.412;2023-08-07T14:20:53;1.38;;;0.50;;
27794;SDS011;15176;50.844;4.412;2023-08-07T14:23:19;2.08;;;0.70;;
27794;SDS011;15176;50.844;4.412;2023-08-07T14:25:45;3.65;;;0.98;;
27794;SDS011;15176;50.844;4.412;2023-08-07T14:28:13;1.98;;;0.70;;
27794;SDS011;15176;50.844;4.412;2023-08-07T14:30:39;2.65;;;0.90;;
27794;SDS011;15176;50.844;4.412;2023-08-07T14:33:05;1.92;;;0.80;;
27794;SDS011;15176;50.844;4.412;2023-08-07T14:35:30;2.92;;;1.10;;
27794;SDS011;15176;50.844;4.412;2023-08-07T14:37:56;2.28;;;0.80;;
27794;SDS011;15176;50.844;4.412;2023-08-07T14:40:21;3.63;;;0.80;;
27794;SDS011;15176;50.844;4.412;2023-08-07T14:42:47;4.25;;;1.10;;
27794;SDS011;15176;50.844;4.412;2023-08-07T14:45:13;2.70;;;0.80;;
27794;SDS011;15176;50.844;4.412;2023-08-07T14:47:40;3.53;;;1.00;;
27794;SDS011;15176;50.844;4.412;2023-08-07T14:50:06;2.35;;;0.70;;
27794;SDS011;15176;50.844;4.412;2023-08-07T14:52:32;5.10;;;0.80;;
27794;SDS011;15176;50.844;4.412;2023-08-07T14:54:58;2.90;;;0.73;;
27794;SDS011;15176;50.844;4.412;2023-08-07T14:57:24;1.77;;;0.73;;
27794;SDS011;15176;50.844;4.412;2023-08-07T14:59:49;4.63;;;0.80;;